Whitewater Creek, Colorado (Grand Mesa) Weather observations

Data are for observation ending at time listed.
 Day   Time    Ave.   Ave.  Ave.  Vector   Max.    Total    Solar   Ave.  
  of    of     Air    Rel.  Wind   Wind    Wind   Precip.   Rad.    Soil  
Year   Day     Temp.  Hum.  Speed  Dir.    Gust                     Temp. 
2015   (MST)    F      %     mph   deg.    mph      in.     W/m2     F   
------------------------------------------------------------------------------
 107   10:50   20.5    94    3.5   220      4.8    99999.00   99999    99999.0
 107   11:00   20.9    94    2.8   221      3.5    99999.00   99999    99999.0
 107   11:10   21.8    94    2.7   213      4.8    99999.00   99999    99999.0
 107   11:20   22.0    94    3.4   211      4.8    99999.00   99999    99999.0
 107   11:30   22.1    94    2.5   217      3.5    99999.00   99999    99999.0
 107   11:40   22.3    94    2.3   218      3.5    99999.00   99999    99999.0
 107   11:50   23.0    94    3.3   218      4.8    99999.00   99999    99999.0
 107   12:00   23.2    94    3.1   236      4.8    99999.00   99999    99999.0
 107   12:10   22.9    94    3.4   241      4.8    99999.00   99999    99999.0
 107   12:20   22.7    94    2.2   240      2.2    99999.00   99999    99999.0
 107   12:30   22.7    94    2.8   228      4.8    99999.00   99999    99999.0
 107   12:40   22.6    94    3.6   214      4.8    99999.00   99999    99999.0
 107   12:50   22.9    94    5.1   208      9.9    99999.00   99999    99999.0
 107   13:00   23.1    94    5.9   204      9.9    99999.00   99999    99999.0
 107   13:10   23.2    94    6.4   183     13.8    99999.00   99999    99999.0
 107   13:20   22.9    94    8.3   176     12.5    99999.00   99999    99999.0
 107   13:30   23.4    94    8.3   177     13.8    99999.00   99999    99999.0
 107   13:40   23.5    94    3.5   164      8.6    99999.00   99999    99999.0
 107   13:50   23.7    94    3.3   167      6.1    99999.00   99999    99999.0
 107   14:00   23.7    94    4.0   158      7.4    99999.00   99999    99999.0
 107   14:10   24.5    93    2.7   153      4.8    99999.00   99999    99999.0
 107   14:20   26.0    93    2.6   203      4.8    99999.00   99999    99999.0
 107   14:30   25.2    92    5.7   227      7.4    99999.00   99999    99999.0
 107   14:40   24.7    92    6.4   239      8.6    99999.00   99999    99999.0
 107   14:50   23.6    93    6.8   239      9.9    99999.00   99999    99999.0
 107   15:00   23.7    93    4.6   238      7.4    99999.00   99999    99999.0
 107   15:10   23.9    93    4.7   213      7.4    99999.00   99999    99999.0
 107   15:20   23.7    93    3.8   222      6.1    99999.00   99999    99999.0
 107   15:30   23.3    93    4.7   209      7.4    99999.00   99999    99999.0
 107   15:40   23.4    94    3.8   263      6.1    99999.00   99999    99999.0
 107   15:50   23.1    93    4.7   236      7.4    99999.00   99999    99999.0
 107   16:00   23.2    94    3.7   229      6.1    99999.00   99999    99999.0
 107   16:10   23.7    93    2.7   225      4.8    99999.00   99999    99999.0
 107   16:20   23.6    93    3.7   220      6.1    99999.00   99999    99999.0
 107   16:30   23.1    93    5.0   212      8.6    99999.00   99999    99999.0
 107   16:40   23.0    93    4.9   214      8.6    99999.00   99999    99999.0
 107   16:50   22.6    94    5.5   208      9.9    99999.00   99999    99999.0
 107   17:00   22.8    94    4.5   218      7.4    99999.00   99999    99999.0
 107   17:10   23.1    94    4.5   215      8.6    99999.00   99999    99999.0
 107   17:20   22.7    94    6.5   211      9.9    99999.00   99999    99999.0
 107   17:30   22.6    94    7.1   214      9.9    99999.00   99999    99999.0
 107   17:40   22.4    94    6.8   211      9.9    99999.00   99999    99999.0
 107   17:50   22.4    94    3.9   216      6.1    99999.00   99999    99999.0
 107   18:00   22.3    94    2.8   208      4.8    99999.00   99999    99999.0
 107   18:10   22.4    94    2.5   216      3.5    99999.00   99999    99999.0
 107   18:20   22.6    95    2.3   222      3.5    99999.00   99999    99999.0
 107   18:30   23.2    95    2.2   226      2.2    99999.00   99999    99999.0
 107   18:40   23.5    94    2.2   232      2.2    99999.00   99999    99999.0
 107   18:50   23.1    95    2.2   232      2.2    99999.00   99999    99999.0
 107   19:00   23.0    95    2.2   236      2.2    99999.00   99999    99999.0
 107   19:10   22.9    95    2.2   282      2.2    99999.00   99999    99999.0
 107   19:20   22.7    95    2.2   282      2.2    99999.00   99999    99999.0
 107   19:30   22.9    95    2.2   282      2.2    99999.00   99999    99999.0
 107   19:40   22.3    94    2.4   313      3.5    99999.00   99999    99999.0
 107   19:50   21.9    95    2.4   330      3.5    99999.00   99999    99999.0
 107   20:00   21.9    95    2.3   337      3.5    99999.00   99999    99999.0
 107   20:10   22.0    95    2.4     3      3.5    99999.00   99999    99999.0
 107   20:20   22.1    95    3.7    26      6.1    99999.00   99999    99999.0
 107   20:30   22.1    95    4.0    34      7.4    99999.00   99999    99999.0
 107   20:40   21.8    95    5.4    27      7.4    99999.00   99999    99999.0
 107   20:50   21.8    95    4.1    24      7.4    99999.00   99999    99999.0
 107   21:00   21.8    95    2.7    45      4.8    99999.00   99999    99999.0
 107   21:10   21.8    95    2.2    53      2.2    99999.00   99999    99999.0
 107   21:20   21.6    95    7.2    31     15.0    99999.00   99999    99999.0
 107   21:30   21.6    95    6.3    24     13.8    99999.00   99999    99999.0
 107   21:40   21.8    95    3.7    31      7.4    99999.00   99999    99999.0
 107   21:50   21.6    95    4.4    40      9.9    99999.00   99999    99999.0
 107   22:00   21.2    95    3.6    49      8.6    99999.00   99999    99999.0
 107   22:10   21.2    95    3.5    49      9.9    99999.00   99999    99999.0
 107   22:20   21.3    95    4.0    47      8.6    99999.00   99999    99999.0
 107   22:30   21.2    95    4.7    52      9.9    99999.00   99999    99999.0
 107   22:40   20.7    95    4.1    62      8.6    99999.00   99999    99999.0
 107   22:50   20.5    94    3.4    41      6.1    99999.00   99999    99999.0
 107   23:00   19.8    94    6.8    39     11.2    99999.00   99999    99999.0
 107   23:10   19.4    94    4.6    41      8.6    99999.00   99999    99999.0
 107   23:20   19.3    94    3.2    59      6.1    99999.00   99999    99999.0
 107   23:30   19.0    94    4.1    48      6.1    99999.00   99999    99999.0
 107   23:40   18.6    94    9.7    40     15.0    99999.00   99999    99999.0
 107   23:50   19.0    94   11.3    37     17.6    99999.00   99999    99999.0
 108    0:00   19.6    94    6.6    45     12.5    99999.00   99999    99999.0
 108    0:10   19.4    94    8.6    40     12.5    99999.00   99999    99999.0
 108    0:20   18.9    94    6.5    42     11.2    99999.00   99999    99999.0
 108    0:30   18.3    94    4.7    73     11.2    99999.00   99999    99999.0
 108    0:40   18.3    93    9.8    84     13.8    99999.00   99999    99999.0
 108    0:50   18.8    93   10.7    88     16.3    99999.00   99999    99999.0
 108    1:00   18.9    93    8.7    91     13.8    99999.00   99999    99999.0
 108    1:10   18.7    93    7.4    90     15.0    99999.00   99999    99999.0
 108    1:20   18.4    93    4.6    57      9.9    99999.00   99999    99999.0
 108    1:30   18.2    93    3.6    32      8.6    99999.00   99999    99999.0
 108    1:40   17.5    93    2.2    50      2.2    99999.00   99999    99999.0
 108    1:50   16.2    92    2.2   122      2.2    99999.00   99999    99999.0
 108    2:00   17.0    93    2.3   268      3.5    99999.00   99999    99999.0
 108    2:10   17.0    93    2.2   322      2.2    99999.00   99999    99999.0
 108    2:20   15.0    92    2.2   322      2.2    99999.00   99999    99999.0
 108    2:30   14.4    92    2.2   322      2.2    99999.00   99999    99999.0
 108    2:40   14.3    92    2.2   322      2.2    99999.00   99999    99999.0
 108    2:50   13.2    92    2.2   338      2.2    99999.00   99999    99999.0
 108    3:00   14.3    92    2.2   342      2.2    99999.00   99999    99999.0
 108    3:10   14.7    92    2.2   342      2.2    99999.00   99999    99999.0
 108    3:20   14.7    92    2.2   346      2.2    99999.00   99999    99999.0
 108    3:30   13.7    92    2.2     0      2.2    99999.00   99999    99999.0
 108    3:40   14.7    92    2.2     0      2.2    99999.00   99999    99999.0
 108    3:50   15.5    93    2.2     0      2.2    99999.00   99999    99999.0
 108    4:00   16.6    93    2.2     0      2.2    99999.00   99999    99999.0
 108    4:10   17.0    93    2.2     0      2.2    99999.00   99999    99999.0
 108    4:20   17.0    93    2.2     0      2.2    99999.00   99999    99999.0
 108    4:30   16.6    93    2.2     0      2.2    99999.00   99999    99999.0
 108    4:40   16.5    93    2.2     0      2.2    99999.00   99999    99999.0
 108    4:50   16.3    93    2.2     0      2.2    99999.00   99999    99999.0
 108    5:00   17.9    94    2.3     1      3.5    99999.00   99999    99999.0
 108    5:10   17.7    93    2.3     2      3.5    99999.00   99999    99999.0
 108    5:20   17.1    93    2.2     2      2.2    99999.00   99999    99999.0
 108    5:30   16.2    92    2.2   356      2.2    99999.00   99999    99999.0
 108    5:40   17.6    94    2.2   355      2.2    99999.00   99999    99999.0
 108    5:50   18.0    93    2.2   355      3.5    99999.00   99999    99999.0
 108    6:00   18.3    94    2.2   355      2.2    99999.00   99999    99999.0
 108    6:10   18.4    94    2.2     7      2.2    99999.00   99999    99999.0
 108    6:20   18.2    93    2.2    10      2.2    99999.00   99999    99999.0
 108    6:30   17.1    93    2.2    12      2.2    99999.00   99999    99999.0
 108    6:40   16.1    93    2.2    14      2.2    99999.00   99999    99999.0
 108    6:50   16.1    93    2.2    14      2.2    99999.00   99999    99999.0
 108    7:00   17.0    93    2.2    13      2.2    99999.00   99999    99999.0
 108    7:10   18.2    94    2.2    12      2.2    99999.00   99999    99999.0
 108    7:20   18.5    93    2.2    18      2.2    99999.00   99999    99999.0
 108    7:30   19.4    94    2.2     4      2.2    99999.00   99999    99999.0
 108    7:40   20.1    94    2.3     4      4.8    99999.00   99999    99999.0
 108    7:50   20.5    94    3.1    13      7.4    99999.00   99999    99999.0
 108    8:00   21.2    94    2.2    16      2.2    99999.00   99999    99999.0
 108    8:10   21.4    94    2.4    14      4.8    99999.00   99999    99999.0
 108    8:20   22.0    94    2.3     8      3.5    99999.00   99999    99999.0
 108    8:30   22.3    94    2.3   324      4.8    99999.00   99999    99999.0
 108    8:40   22.8    94    2.9   339      6.1    99999.00   99999    99999.0
 108    8:50   22.9    94    2.7   337      6.1    99999.00   99999    99999.0
 108    9:00   22.7    93    3.1   339      6.1    99999.00   99999    99999.0
 108    9:10   23.0    94    2.9   333      4.8    99999.00   99999    99999.0
 108    9:20   23.6    93    3.3   337      6.1    99999.00   99999    99999.0
 108    9:30   24.0    93    3.6   332      9.9    99999.00   99999    99999.0
 108    9:40   24.3    94    3.2   322      6.1    99999.00   99999    99999.0
 108    9:50   24.9    94    2.6   322      4.8    99999.00   99999    99999.0
 108   10:00   25.0    93    3.0   318      6.1    99999.00   99999    99999.0
 108   10:10   24.9    94    2.6   303      4.8    99999.00   99999    99999.0
 108   10:20   25.3    94    3.0   301      7.4    99999.00   99999    99999.0
 108   10:30   25.6    94    2.3   294      3.5    99999.00   99999    99999.0
 108   10:40   25.7    94    4.0   296      7.4    99999.00   99999    99999.0

Return to Whitewater Creek, Colorado graphs page.


Western Regional Climate Center,wrcc@dri.edu